createdAt,value
2022-09-07T00:01:15.688Z,20.30
2022-09-07T00:03:42.396Z,20.30
2022-09-07T00:06:10.498Z,20.30
2022-09-07T00:08:39.666Z,20.30
2022-09-07T00:11:07.700Z,20.30
2022-09-07T00:13:35.397Z,20.20
2022-09-07T00:16:22.354Z,20.20
2022-09-07T00:18:49.035Z,20.20
2022-09-07T00:21:20.400Z,20.10
2022-09-07T00:23:48.113Z,20.10
2022-09-07T00:26:16.306Z,20.10
2022-09-07T00:28:43.678Z,20.10
2022-09-07T00:31:11.620Z,20.10
2022-09-07T00:33:38.264Z,20.10
2022-09-07T00:36:05.022Z,20.00
2022-09-07T00:38:31.749Z,20.00
2022-09-07T00:40:58.407Z,20.00
2022-09-07T00:43:32.596Z,20.00
2022-09-07T00:45:59.479Z,20.00
2022-09-07T00:48:29.643Z,20.00
2022-09-07T00:50:58.738Z,20.00
2022-09-07T00:53:28.329Z,20.00
2022-09-07T00:55:56.611Z,20.00
2022-09-07T00:58:23.567Z,20.00
2022-09-07T01:00:52.867Z,20.00
2022-09-07T01:03:40.326Z,20.00
2022-09-07T01:06:11.829Z,19.90
2022-09-07T01:08:41.483Z,19.90
2022-09-07T01:11:08.120Z,19.80
2022-09-07T01:13:35.325Z,19.80
2022-09-07T01:16:08.271Z,19.70
2022-09-07T01:18:42.718Z,19.70
2022-09-07T01:21:23.193Z,19.60
2022-09-07T01:23:58.598Z,19.50
2022-09-07T01:26:39.963Z,19.40
2022-09-07T01:29:16.605Z,19.40
2022-09-07T01:32:05.291Z,19.30
2022-09-07T01:34:31.965Z,19.30
2022-09-07T01:36:58.533Z,19.40
2022-09-07T01:39:31.146Z,19.40
2022-09-07T01:42:12.318Z,19.40
2022-09-07T01:44:46.333Z,19.40
2022-09-07T01:47:22.339Z,19.40
2022-09-07T01:49:55.021Z,19.40
2022-09-07T01:52:40.978Z,19.40
2022-09-07T01:55:07.736Z,19.40
2022-09-07T01:57:39.254Z,19.40
2022-09-07T02:00:10.697Z,19.30
2022-09-07T02:02:52.584Z,19.30
2022-09-07T02:05:21.588Z,19.30
2022-09-07T02:07:48.126Z,19.30
2022-09-07T02:10:37.467Z,19.30
2022-09-07T02:13:13.858Z,19.30
2022-09-07T02:16:00.921Z,19.20
2022-09-07T02:18:31.108Z,19.20
2022-09-07T02:20:58.292Z,19.20
2022-09-07T02:23:26.853Z,19.20
2022-09-07T02:25:57.352Z,19.30
2022-09-07T02:28:27.335Z,19.30
2022-09-07T02:30:55.279Z,19.20
2022-09-07T02:33:21.977Z,19.20
2022-09-07T02:35:48.916Z,19.30
2022-09-07T02:38:15.563Z,19.30
2022-09-07T02:40:42.150Z,19.20
2022-09-07T02:43:10.156Z,19.30
2022-09-07T02:45:54.666Z,19.30
2022-09-07T02:48:24.157Z,19.30
2022-09-07T02:51:10.962Z,19.40
2022-09-07T02:53:39.814Z,19.40
2022-09-07T02:56:06.385Z,19.40
2022-09-07T02:58:48.179Z,19.40
2022-09-07T03:01:20.990Z,19.40
2022-09-07T03:03:59.881Z,19.40
2022-09-07T03:06:31.581Z,19.30
2022-09-07T03:09:01.936Z,19.40
2022-09-07T03:11:29.269Z,19.30
2022-09-07T03:14:14.121Z,19.30
2022-09-07T03:16:40.753Z,19.30
2022-09-07T03:19:07.354Z,19.30
2022-09-07T03:21:33.999Z,19.30
2022-09-07T03:24:00.560Z,19.30
2022-09-07T03:26:27.217Z,19.30
2022-09-07T03:28:53.952Z,19.20
2022-09-07T03:31:20.799Z,19.20
2022-09-07T03:33:47.515Z,19.20
2022-09-07T03:36:14.111Z,19.20
2022-09-07T03:38:40.725Z,19.20
2022-09-07T03:41:09.954Z,19.10
2022-09-07T03:43:36.514Z,19.00
2022-09-07T03:46:04.979Z,19.00
2022-09-07T03:48:32.474Z,18.90
2022-09-07T03:51:03.239Z,18.90
2022-09-07T03:53:33.327Z,18.90
2022-09-07T03:56:04.649Z,18.90
2022-09-07T03:58:32.337Z,18.80
2022-09-07T04:01:00.350Z,18.80
2022-09-07T04:03:27.167Z,18.80
2022-09-07T04:05:53.761Z,18.80
2022-09-07T04:08:24.407Z,18.80
2022-09-07T04:10:50.989Z,18.80
2022-09-07T04:13:17.622Z,18.80
2022-09-07T04:15:44.257Z,18.80
2022-09-07T04:18:10.845Z,18.80
2022-09-07T04:20:37.434Z,18.80
2022-09-07T04:23:04.036Z,18.80
2022-09-07T04:25:30.626Z,18.70
2022-09-07T04:27:57.749Z,18.70
2022-09-07T04:30:26.803Z,18.70
2022-09-07T04:32:53.450Z,18.70
2022-09-07T04:35:22.869Z,18.70
2022-09-07T04:37:49.459Z,18.60
2022-09-07T04:40:16.188Z,18.60
2022-09-07T04:42:42.943Z,18.60
2022-09-07T04:45:09.709Z,18.60
2022-09-07T04:47:36.311Z,18.60
2022-09-07T04:50:02.929Z,18.50
2022-09-07T04:52:29.601Z,18.50
2022-09-07T04:54:56.256Z,18.50
2022-09-07T04:57:25.777Z,18.40
2022-09-07T04:59:52.539Z,18.30
2022-09-07T05:02:19.221Z,18.30
2022-09-07T05:04:45.829Z,18.10
2022-09-07T05:07:12.450Z,18.10
2022-09-07T05:09:39.101Z,18.10
2022-09-07T05:12:05.838Z,18.20
2022-09-07T05:14:32.424Z,18.20
2022-09-07T05:16:59.142Z,18.30
2022-09-07T05:19:25.758Z,18.30
2022-09-07T05:21:54.499Z,18.30
2022-09-07T05:27:05.397Z,18.40
2022-09-07T05:32:18.573Z,18.30
2022-09-07T05:34:46.749Z,18.40
2022-09-07T05:37:16.564Z,18.40
2022-09-07T05:39:44.027Z,18.40
2022-09-07T05:42:13.106Z,18.40
2022-09-07T05:47:09.281Z,18.40
2022-09-07T05:49:35.866Z,18.40
2022-09-07T05:52:04.924Z,18.40
2022-09-07T05:54:31.557Z,18.40
2022-09-07T05:56:58.327Z,18.40
2022-09-07T05:59:24.963Z,18.40
2022-09-07T06:01:51.694Z,18.40
2022-09-07T06:04:20.736Z,18.40
2022-09-07T06:06:59.306Z,18.40
2022-09-07T06:09:31.506Z,18.40
2022-09-07T06:11:58.149Z,18.50
2022-09-07T06:14:25.042Z,18.50
2022-09-07T06:16:51.732Z,18.50
2022-09-07T06:19:18.363Z,18.50
2022-09-07T06:21:45.037Z,18.40
2022-09-07T06:24:11.656Z,18.40
2022-09-07T06:26:38.266Z,18.30
2022-09-07T06:29:04.909Z,18.40
2022-09-07T06:31:31.950Z,18.40
2022-09-07T06:33:58.803Z,18.50
2022-09-07T06:36:27.693Z,18.60
2022-09-07T06:38:58.851Z,18.60
2022-09-07T06:44:13.134Z,18.70
2022-09-07T06:49:26.536Z,18.90
2022-09-07T06:51:53.122Z,19.00
2022-09-07T06:57:09.109Z,19.20
2022-09-07T06:59:36.672Z,19.20
2022-09-07T07:02:03.972Z,19.20
2022-09-07T07:04:37.680Z,19.30
2022-09-07T07:07:06.549Z,19.30
2022-09-07T07:09:35.287Z,19.40
2022-09-07T07:12:01.956Z,19.40
2022-09-07T07:14:31.024Z,19.50
2022-09-07T07:16:58.899Z,19.60
2022-09-07T07:19:28.173Z,19.70
2022-09-07T07:24:46.329Z,21.50
2022-09-07T07:27:12.936Z,21.70
2022-09-07T07:29:39.513Z,22.20
2022-09-07T07:32:06.180Z,23.40
2022-09-07T07:34:33.051Z,25.10
2022-09-07T07:36:59.662Z,26.30
2022-09-07T07:42:12.751Z,26.60
2022-09-07T07:44:39.329Z,26.80
2022-09-07T07:47:06.259Z,27.30
2022-09-07T07:49:34.959Z,27.90
2022-09-07T07:54:48.584Z,28.60
2022-09-07T07:57:16.805Z,28.50
2022-09-07T07:59:43.424Z,28.10
2022-09-07T08:02:15.906Z,27.80
2022-09-07T08:04:42.831Z,27.20
2022-09-07T08:07:11.323Z,26.80
2022-09-07T08:09:39.001Z,26.40
2022-09-07T08:12:05.621Z,26.20
2022-09-07T08:14:36.445Z,26.00
2022-09-07T08:17:03.062Z,26.00
2022-09-07T08:19:32.064Z,25.90
2022-09-07T08:21:58.691Z,25.70
2022-09-07T08:24:25.685Z,25.60
2022-09-07T08:26:52.683Z,25.50
2022-09-07T08:29:19.217Z,25.40
2022-09-07T08:31:48.375Z,25.30
2022-09-07T08:34:14.970Z,25.20
2022-09-07T08:36:41.531Z,25.20
2022-09-07T08:39:08.107Z,25.10
2022-09-07T08:41:37.705Z,25.00
2022-09-07T08:44:09.929Z,25.00
2022-09-07T08:46:42.351Z,24.90
2022-09-07T08:49:17.814Z,24.90
2022-09-07T08:51:47.644Z,24.90
2022-09-07T08:54:16.581Z,24.90
2022-09-07T08:59:43.091Z,24.70
2022-09-07T09:02:32.656Z,24.60
2022-09-07T09:05:19.267Z,24.60
2022-09-07T09:08:07.106Z,24.50
2022-09-07T09:10:36.392Z,24.50
2022-09-07T09:13:21.665Z,24.60
2022-09-07T09:15:57.158Z,24.70
2022-09-07T09:18:42.348Z,24.80
2022-09-07T09:21:13.707Z,24.70
2022-09-07T09:23:41.709Z,24.70
2022-09-07T09:26:14.399Z,24.70
2022-09-07T09:28:41.230Z,24.80
2022-09-07T09:31:18.079Z,24.80
2022-09-07T09:34:06.909Z,24.80
2022-09-07T09:36:35.377Z,24.90
2022-09-07T09:39:23.779Z,25.00
2022-09-07T09:41:52.470Z,24.90
2022-09-07T09:44:22.535Z,25.00
2022-09-07T09:47:29.683Z,25.10
2022-09-07T09:49:44.777Z,25.10
2022-09-07T09:52:45.010Z,25.10
2022-09-07T09:55:30.561Z,25.10
2022-09-07T10:03:57.401Z,25.20
2022-09-07T10:06:26.095Z,25.30
2022-09-07T10:09:02.306Z,25.30
2022-09-07T10:14:29.866Z,25.30
2022-09-07T10:16:57.607Z,25.40
2022-09-07T10:19:50.285Z,25.40
2022-09-07T10:22:22.086Z,25.40
2022-09-07T10:24:48.805Z,25.50
2022-09-07T10:27:19.597Z,25.50
2022-09-07T10:29:46.197Z,25.60
2022-09-07T10:32:25.006Z,25.70
2022-09-07T10:35:01.512Z,25.70
2022-09-07T10:37:42.504Z,25.80
2022-09-07T10:40:12.328Z,25.80
2022-09-07T10:45:59.415Z,25.80
2022-09-07T10:48:25.967Z,25.90
2022-09-07T10:51:05.033Z,25.90
2022-09-07T10:53:43.370Z,25.90
2022-09-07T10:56:25.753Z,26.00
2022-09-07T10:59:05.123Z,26.10
2022-09-07T11:01:43.966Z,26.10
2022-09-07T11:04:28.978Z,26.10
2022-09-07T11:06:59.875Z,26.10
2022-09-07T11:09:35.083Z,26.10
2022-09-07T11:12:02.494Z,26.20
2022-09-07T11:14:32.460Z,26.30
2022-09-07T11:17:01.699Z,26.30
2022-09-07T11:19:39.728Z,26.30
2022-09-07T11:22:16.041Z,26.40
2022-09-07T11:27:48.415Z,26.40
2022-09-07T11:30:20.579Z,26.50
2022-09-07T11:32:53.971Z,26.50
2022-09-07T11:35:32.247Z,26.50
2022-09-07T11:38:03.628Z,26.50
2022-09-07T11:40:30.149Z,26.50
2022-09-07T11:42:59.716Z,26.50
2022-09-07T11:45:42.155Z,26.50
2022-09-07T11:48:19.645Z,26.50
2022-09-07T11:50:51.219Z,26.60
2022-09-07T11:53:19.891Z,26.60
2022-09-07T11:55:49.521Z,26.60
2022-09-07T11:58:16.039Z,26.70
2022-09-07T12:00:48.492Z,26.80
2022-09-07T12:03:22.638Z,26.80
2022-09-07T12:06:07.582Z,26.90
2022-09-07T12:08:40.028Z,26.90
2022-09-07T12:11:25.419Z,27.00
2022-09-07T12:13:57.795Z,27.00
2022-09-07T12:16:43.256Z,27.00
2022-09-07T12:19:18.619Z,27.00
2022-09-07T12:21:47.510Z,27.10
2022-09-07T12:24:35.495Z,27.20
2022-09-07T12:27:02.940Z,27.20
2022-09-07T12:29:30.623Z,27.20
2022-09-07T12:32:52.838Z,27.20
2022-09-07T12:34:50.578Z,27.10
2022-09-07T12:37:26.612Z,27.10
2022-09-07T12:40:13.437Z,27.00
2022-09-07T12:42:42.556Z,27.00
2022-09-07T12:45:27.816Z,27.00
2022-09-07T12:48:01.218Z,27.10
2022-09-07T12:50:42.444Z,27.20
2022-09-07T12:53:15.187Z,27.20
2022-09-07T12:58:36.751Z,27.10
2022-09-07T13:01:17.875Z,27.10
2022-09-07T13:03:53.886Z,27.10
2022-09-07T13:07:01.672Z,27.10
2022-09-07T13:09:25.770Z,27.00
2022-09-07T13:11:52.450Z,27.00
2022-09-07T13:14:23.376Z,27.00
2022-09-07T13:17:17.343Z,27.10
2022-09-07T13:19:50.111Z,27.10
2022-09-07T13:22:35.388Z,27.20
2022-09-07T13:25:05.429Z,27.20
2022-09-07T13:28:04.551Z,27.30
2022-09-07T13:30:47.761Z,27.40
2022-09-07T13:33:23.508Z,27.50
2022-09-07T13:35:54.566Z,27.50
2022-09-07T13:38:21.425Z,27.50
2022-09-07T13:40:49.436Z,27.60
2022-09-07T13:43:19.228Z,27.50
2022-09-07T13:45:48.885Z,27.50
2022-09-07T13:48:25.230Z,27.40
2022-09-07T13:50:54.821Z,27.30
2022-09-07T13:53:30.728Z,27.30
2022-09-07T13:56:05.372Z,27.30
2022-09-07T13:58:35.970Z,27.30
2022-09-07T14:01:04.945Z,27.30
2022-09-07T14:03:37.729Z,27.30
2022-09-07T14:06:26.687Z,27.20
2022-09-07T14:09:00.347Z,27.20
2022-09-07T14:11:28.658Z,27.20
2022-09-07T14:14:07.137Z,27.20
2022-09-07T14:16:37.055Z,27.30
2022-09-07T14:19:13.004Z,27.30
2022-09-07T14:21:40.013Z,27.30
2022-09-07T14:24:18.509Z,27.20
2022-09-07T14:26:45.924Z,27.20
2022-09-07T14:29:20.953Z,27.20
2022-09-07T14:31:47.564Z,27.10
2022-09-07T14:34:16.584Z,27.10
2022-09-07T14:36:46.863Z,27.00
2022-09-07T14:39:15.430Z,27.00
2022-09-07T14:41:43.029Z,27.00
2022-09-07T14:44:28.548Z,27.00
2022-09-07T14:46:56.995Z,27.00
2022-09-07T14:49:24.371Z,27.00
2022-09-07T14:51:52.231Z,27.00
2022-09-07T14:54:20.515Z,27.00
2022-09-07T14:57:01.097Z,27.00
2022-09-07T14:59:53.799Z,26.90
2022-09-07T15:02:26.297Z,26.80
2022-09-07T15:05:15.409Z,26.80
2022-09-07T15:07:48.463Z,26.80
2022-09-07T15:10:23.769Z,26.70
2022-09-07T15:12:51.784Z,26.70
2022-09-07T15:15:18.295Z,26.70
2022-09-07T15:17:45.485Z,26.60
2022-09-07T15:20:31.794Z,26.60
2022-09-07T15:22:58.793Z,26.50
2022-09-07T15:25:25.404Z,26.50
2022-09-07T15:27:53.300Z,26.60
2022-09-07T15:30:20.106Z,26.60
2022-09-07T15:32:46.675Z,26.60
2022-09-07T15:35:13.361Z,26.60
2022-09-07T15:40:27.225Z,26.60
2022-09-07T15:43:02.057Z,26.50
2022-09-07T15:45:31.640Z,26.50
2022-09-07T15:47:58.497Z,26.50
2022-09-07T15:50:25.196Z,26.50
2022-09-07T15:52:51.721Z,26.50
2022-09-07T15:55:18.302Z,26.50
2022-09-07T15:57:50.178Z,26.40
2022-09-07T16:00:19.568Z,26.40
2022-09-07T16:05:36.760Z,26.40
2022-09-07T16:10:54.053Z,26.50
2022-09-07T16:13:24.211Z,26.50
2022-09-07T16:15:53.215Z,26.50
2022-09-07T16:18:22.217Z,26.50
2022-09-07T16:20:52.683Z,26.50
2022-09-07T16:23:24.354Z,26.50
2022-09-07T16:25:55.155Z,26.40
2022-09-07T16:28:21.661Z,26.40
2022-09-07T16:30:48.392Z,26.40
2022-09-07T16:33:15.138Z,26.30
2022-09-07T16:35:41.794Z,26.20
2022-09-07T16:40:58.157Z,26.20
2022-09-07T16:43:24.853Z,26.20
2022-09-07T16:46:04.864Z,26.10
2022-09-07T16:48:34.787Z,26.00
2022-09-07T16:51:02.757Z,26.00
2022-09-07T16:53:31.034Z,25.90
2022-09-07T16:56:04.772Z,25.90
2022-09-07T16:58:36.013Z,25.90
2022-09-07T17:01:04.064Z,25.90
2022-09-07T17:03:30.659Z,25.90
2022-09-07T17:05:59.631Z,25.80
2022-09-07T17:08:26.475Z,25.70
2022-09-07T17:10:58.578Z,25.80
2022-09-07T17:13:27.536Z,25.70
2022-09-07T17:15:54.321Z,25.70
2022-09-07T17:19:28.820Z,25.60
2022-09-07T17:21:07.840Z,25.70
2022-09-07T17:23:44.515Z,25.60
2022-09-07T17:26:21.180Z,25.60
2022-09-07T17:28:51.312Z,25.50
2022-09-07T17:34:10.171Z,25.50
2022-09-07T17:36:36.754Z,25.50
2022-09-07T17:39:19.658Z,25.40
2022-09-07T17:41:47.888Z,25.40
2022-09-07T17:44:16.884Z,25.40
2022-09-07T17:46:43.797Z,25.30
2022-09-07T17:49:12.297Z,25.30
2022-09-07T17:51:39.024Z,25.20
2022-09-07T17:54:09.936Z,25.20
2022-09-07T17:56:37.837Z,25.10
2022-09-07T18:01:55.854Z,25.10
2022-09-07T18:04:22.686Z,25.10
2022-09-07T18:06:49.349Z,25.00
2022-09-07T18:09:16.019Z,25.00
2022-09-07T18:11:45.540Z,24.90
2022-09-07T18:14:15.115Z,24.90
2022-09-07T18:16:42.805Z,24.80
2022-09-07T18:19:10.986Z,24.80
2022-09-07T18:21:38.363Z,24.80
2022-09-07T18:24:07.455Z,24.70
2022-09-07T18:26:36.089Z,24.60
2022-09-07T18:29:12.965Z,24.60
2022-09-07T18:31:45.930Z,24.50
2022-09-07T18:34:14.988Z,24.50
2022-09-07T18:36:44.008Z,24.40
2022-09-07T18:39:10.782Z,24.40
2022-09-07T18:41:40.912Z,24.30
2022-09-07T18:45:27.274Z,24.30
2022-09-07T18:46:54.172Z,24.30
2022-09-07T18:49:20.814Z,24.30
2022-09-07T18:54:36.340Z,24.20
2022-09-07T18:57:06.738Z,24.10
2022-09-07T18:59:33.774Z,24.10
2022-09-07T19:02:04.247Z,24.10
2022-09-07T19:07:20.310Z,23.90
2022-09-07T19:09:47.951Z,23.90
2022-09-07T19:12:14.524Z,23.80
2022-09-07T19:14:42.113Z,23.70
2022-09-07T19:17:10.833Z,23.70
2022-09-07T19:19:38.294Z,23.60
2022-09-07T19:22:04.886Z,23.50
2022-09-07T19:24:31.796Z,23.50
2022-09-07T19:27:00.594Z,23.40
2022-09-07T19:29:27.963Z,23.30
2022-09-07T19:32:11.892Z,23.40
2022-09-07T19:34:43.246Z,23.30
2022-09-07T19:37:12.826Z,23.30
2022-09-07T19:39:39.616Z,23.20
2022-09-07T19:42:06.410Z,23.20
2022-09-07T19:44:33.054Z,23.20
2022-09-07T19:47:00.423Z,23.10
2022-09-07T19:49:27.620Z,23.00
2022-09-07T19:51:54.250Z,23.00
2022-09-07T19:54:20.769Z,23.00
2022-09-07T19:56:47.341Z,22.90
2022-09-07T19:59:14.474Z,22.80
2022-09-07T20:01:46.335Z,22.80
2022-09-07T20:04:18.950Z,22.70
2022-09-07T20:06:49.821Z,22.60
2022-09-07T20:09:20.161Z,22.50
2022-09-07T20:11:47.686Z,22.40
2022-09-07T20:14:17.455Z,22.30
2022-09-07T20:16:44.158Z,22.30
2022-09-07T20:19:11.522Z,22.30
2022-09-07T20:21:38.053Z,22.20
2022-09-07T20:24:06.793Z,22.20
2022-09-07T20:26:33.390Z,22.10
2022-09-07T20:29:25.664Z,22.10
2022-09-07T20:31:48.786Z,22.00
2022-09-07T20:34:15.352Z,22.00
2022-09-07T20:36:41.908Z,22.00
2022-09-07T20:39:12.789Z,21.90
2022-09-07T20:41:39.411Z,21.90
2022-09-07T20:44:05.928Z,21.80
2022-09-07T20:46:32.586Z,21.80
2022-09-07T20:48:59.160Z,21.70
2022-09-07T20:51:25.735Z,21.70
2022-09-07T20:53:52.434Z,21.60
2022-09-07T20:56:23.086Z,21.60
2022-09-07T20:58:53.595Z,21.50
2022-09-07T21:01:21.110Z,21.50
2022-09-07T21:03:50.865Z,21.40
2022-09-07T21:06:17.790Z,21.40
2022-09-07T21:08:45.106Z,21.40
2022-09-07T21:11:15.181Z,21.40
2022-09-07T21:13:42.134Z,21.30
2022-09-07T21:16:10.030Z,21.30
2022-09-07T21:18:36.958Z,21.20
2022-09-07T21:21:21.398Z,21.20
2022-09-07T21:23:48.049Z,21.10
2022-09-07T21:26:14.989Z,21.10
2022-09-07T21:28:41.490Z,21.10
2022-09-07T21:31:08.658Z,21.10
2022-09-07T21:33:36.225Z,21.00
2022-09-07T21:36:05.878Z,21.00
2022-09-07T21:38:33.565Z,20.90
2022-09-07T21:41:04.853Z,20.90
2022-09-07T21:43:31.468Z,20.90
2022-09-07T21:45:58.045Z,20.90
2022-09-07T21:48:24.574Z,20.80
2022-09-07T21:50:56.347Z,20.70
2022-09-07T21:53:22.871Z,20.80
2022-09-07T21:56:09.704Z,20.70
2022-09-07T21:58:36.306Z,20.70
2022-09-07T22:01:29.277Z,20.70
2022-09-07T22:03:57.186Z,20.60
2022-09-07T22:06:24.260Z,20.50
2022-09-07T22:08:53.367Z,20.50
2022-09-07T22:11:23.342Z,20.50
2022-09-07T22:13:53.233Z,20.50
2022-09-07T22:16:19.930Z,20.40
2022-09-07T22:18:46.605Z,20.40
2022-09-07T22:21:16.955Z,20.40
2022-09-07T22:23:47.531Z,20.30
2022-09-07T22:26:14.897Z,20.30
2022-09-07T22:28:41.684Z,20.30
2022-09-07T22:31:11.670Z,20.30
2022-09-07T22:33:38.853Z,20.20
2022-09-07T22:36:15.965Z,20.10
2022-09-07T22:38:43.159Z,20.10
2022-09-07T22:41:12.807Z,20.10
2022-09-07T22:43:42.785Z,20.00
2022-09-07T22:46:09.570Z,20.10
2022-09-07T22:48:36.684Z,20.00
2022-09-07T22:51:06.110Z,20.00
2022-09-07T22:53:34.019Z,19.90
2022-09-07T22:56:06.825Z,19.90
2022-09-07T22:58:33.462Z,19.90
2022-09-07T23:01:00.718Z,19.90
2022-09-07T23:03:31.581Z,19.80
2022-09-07T23:05:58.347Z,19.80
2022-09-07T23:08:25.882Z,19.80
2022-09-07T23:10:52.936Z,19.70
2022-09-07T23:13:20.191Z,19.70
2022-09-07T23:15:49.434Z,19.70
2022-09-07T23:18:19.011Z,19.70
2022-09-07T23:20:45.855Z,19.70
2022-09-07T23:23:13.581Z,19.60
2022-09-07T23:25:41.113Z,19.60
2022-09-07T23:28:09.858Z,19.60
2022-09-07T23:30:40.596Z,19.50
2022-09-07T23:33:07.208Z,19.50
2022-09-07T23:35:33.812Z,19.50
2022-09-07T23:38:03.120Z,19.40
2022-09-07T23:40:30.475Z,19.40
2022-09-07T23:42:57.437Z,19.40
2022-09-07T23:45:24.423Z,19.40
2022-09-07T23:47:51.241Z,19.40
2022-09-07T23:50:20.458Z,19.30
2022-09-07T23:52:47.197Z,19.30
2022-09-07T23:55:16.754Z,19.30
2022-09-07T23:57:43.582Z,19.30
